首页
METAR-TAF:

METAR-TAF

机场 :

Monte Real, 葡萄牙

纬度: 39-49-52N, 经度: 008-53-14W, 海拔: 57米

当前天气观测

该预报发布于17分钟前的14:00 UTC
风速13节,风向西转西北
温度 32°C
湿度 28%
气压 1016 hPa
能见度10公里或以上
1500米以下无云,无积雨云

METAR: LPMR 201400Z 29013KT CAVOK 32/11 Q1016

时间: 15:17 (14:17 UTC)

预报

该预报发布于3小时和13分钟前的11:04 UTC
预报有效从20日的 12点(UTC)到 21日的 12点(UTC)
风速8节,风向东转东南
能见度10公里或以上
1500米以下无云,无积雨云
成为
从 20日的 12点(UTC)到 20日的 14点(UTC)
风速12节,风向北转西北
成为
从 20日的 18点(UTC)到 20日的 21点(UTC)
风速2节,风向多变
成为
从 21日的 10点(UTC)到 21日的 12点(UTC)
风速7节,风向西

TAF: LPMR 201104Z 2012/2112 12008KT CAVOK BECMG 2012/2014 33012KT BECMG 2018/2021 VRB02KT BECMG 2110/2112 27007KT

超过4000个机场的气象观测和天气预报(METAR&TAF报告)。

可查询的气象台以黄色和红色小点在地图上表示。

将鼠标移到小点上方,可查看气象台名称。

然后点击查看天气观测和预报。

如需切换地图:点击带黑十字的绿色按钮放大地图;点击带横线的绿色按钮缩小地图;或者点击绿色箭头查看邻近地区的地图。


METAR-TAF: